Caryali — V7NX9 — position and weather

sailwx.info

Track history (hours):
 
Tides and Currents Weather Stations Pressure Air Temp Water Temp Dewpoint Dewpoint Depression Visibility Wind Speed Wind Dir Waves Ship Positions

Caryali

Last reported at 2017-Dec-17 17:00 UTC. Time now 2017-Dec-17 17:27 UTC.
Position N 26°06' W 080°10'.

Length 28 m; draft 2.6 m.

Type: Pleasure craft. MMSI: 538070451.

Date/timePositionNaut miles runAvg speedWind from/ knotsBaromVisibWave heightAir tempDewpointWater temp
2017-Dec-17 17:00N 26°06' W 080°10'0 0.0
2017-Dec-17 16:30N 26°06' W 080°10'0 0.0
2017-Dec-17 16:00N 26°06' W 080°10'0 0.1
2017-Dec-17 15:30N 26°06' W 080°10'1 2.4
2017-Dec-17 15:00N 26°07' W 080°09'2 3.0
2017-Dec-17 14:30N 26°07' W 080°07'1 1.3
2017-Dec-17 14:00N 26°07' W 080°07'0 0.1
2017-Dec-17 13:30N 26°07' W 080°07'0 0.8
2017-Dec-17 13:00N 26°07' W 080°07'0 0.8
2017-Dec-17 12:30N 26°06' W 080°07'0 0.0
2017-Dec-17 12:00N 26°06' W 080°07'0 0.0
2017-Dec-17 11:30N 26°06' W 080°07'0 0.0
2017-Dec-17 11:00N 26°06' W 080°07'0 0.0
2017-Dec-17 10:30N 26°06' W 080°07'0 0.0
2017-Dec-17 10:00N 26°06' W 080°07'0 0.0
2017-Dec-17 09:30N 26°06' W 080°07'0 0.0
2017-Dec-17 09:00N 26°06' W 080°07'0 0.0
2017-Dec-17 08:30N 26°06' W 080°07'0 0.5
2017-Dec-17 08:00N 26°06' W 080°07'1 2.9
2017-Dec-17 07:30N 26°06' W 080°06'4 7.5
2017-Dec-17 07:00N 26°05' W 080°01'5 9.4
2017-Dec-17 06:30N 26°03' W 079°57'5 9.2
2017-Dec-17 06:00N 26°01' W 079°52'5 9.1
2017-Dec-17 05:30N 25°60' W 079°47'5 9.2
2017-Dec-17 05:00N 25°57' W 079°42'5 9.0
2017-Dec-17 04:25N 25°55' W 079°37'  
Track history (hours):
 
Tides and Currents Weather Stations Pressure Air Temp Water Temp Dewpoint Dewpoint Depression Visibility Wind Speed Wind Dir Waves Ship Positions

Caryali

Last reported at 2017-Dec-17 17:00 UTC. Time now 2017-Dec-17 17:27 UTC.
Position N 26°06' W 080°10'.

Length 28 m; draft 2.6 m.

Type: Pleasure craft. MMSI: 538070451.

Date/timePositionNaut miles runAvg speedWind from/ knotsBaromVisibWave heightAir tempDewpointWater temp
2017-Dec-17 17:00N 26°06' W 080°10'0 0.0
2017-Dec-17 16:30N 26°06' W 080°10'0 0.0
2017-Dec-17 16:00N 26°06' W 080°10'0 0.1
2017-Dec-17 15:30N 26°06' W 080°10'1 2.4
2017-Dec-17 15:00N 26°07' W 080°09'2 3.0
2017-Dec-17 14:30N 26°07' W 080°07'1 1.3
2017-Dec-17 14:00N 26°07' W 080°07'0 0.1
2017-Dec-17 13:30N 26°07' W 080°07'0 0.8
2017-Dec-17 13:00N 26°07' W 080°07'0 0.8
2017-Dec-17 12:30N 26°06' W 080°07'0 0.0
2017-Dec-17 12:00N 26°06' W 080°07'0 0.0
2017-Dec-17 11:30N 26°06' W 080°07'0 0.0
2017-Dec-17 11:00N 26°06' W 080°07'0 0.0
2017-Dec-17 10:30N 26°06' W 080°07'0 0.0
2017-Dec-17 10:00N 26°06' W 080°07'0 0.0
2017-Dec-17 09:30N 26°06' W 080°07'0 0.0
2017-Dec-17 09:00N 26°06' W 080°07'0 0.0
2017-Dec-17 08:30N 26°06' W 080°07'0 0.5
2017-Dec-17 08:00N 26°06' W 080°07'1 2.9
2017-Dec-17 07:30N 26°06' W 080°06'4 7.5
2017-Dec-17 07:00N 26°05' W 080°01'5 9.4
2017-Dec-17 06:30N 26°03' W 079°57'5 9.2
2017-Dec-17 06:00N 26°01' W 079°52'5 9.1
2017-Dec-17 05:30N 25°60' W 079°47'5 9.2
2017-Dec-17 05:00N 25°57' W 079°42'5 9.0
2017-Dec-17 04:25N 25°55' W 079°37'  

Dump ship's entire track history